Terminal Aerodrome Forecast
Issued by NWS

Home | Current Version | Previous Version | Text Only | Print | Product List | Glossary On
Versions: 1 2 3 4 5 6 7 8 9 10 11 12 13
605
FTUS42 KMHX 251740
TAFISO
TAF
KISO 251740Z 2518/2618 21010KT P6SM SCT040
     FM260100 20008KT P6SM SKC
     FM261000 22005KT 5SM BR SKC
     FM261230 23007KT P6SM FEW050 SCT250
      AMD LTD TO CLD VIS AND WIND=

USA.gov is the U.S. government's official web portal to all federal, state and local government web resources and services.